Time;durP1;ratioP1;P1;durP2;ratioP2;P2;SDS_P1;SDS_P2;PMS_P1;PMS_P2;Temp;Humidity;BMP_temperature;BMP_pressure;BME280_temperature;BME280_humidity;BME280_pressure;Samples;Min_cycle;Max_cycle;Signal;HPM_P1;HPM_P2
2022/07/13 00:00:20;;;;;;;2.72;1.30;;;;;;;16.97;100.00;98824.09;4404126;32;20403;-69
2022/07/13 00:03:02;;;;;;;1.27;1.08;;;;;;;17.27;100.00;98897.34;4405935;32;20037;-69
2022/07/13 00:05:28;;;;;;;2.28;1.05;;;;;;;17.29;100.00;98901.38;4419947;32;20054;-70
2022/07/13 00:07:55;;;;;;;1.15;0.88;;;;;;;16.78;100.00;98836.88;4433379;32;20067;-69
2022/07/13 00:10:21;;;;;;;1.15;1.00;;;;;;;17.22;100.00;98879.19;4432752;32;20072;-70
2022/07/13 00:12:47;;;;;;;1.10;0.90;;;;;;;17.25;100.00;98886.75;4431287;32;20065;-70
2022/07/13 00:15:14;;;;;;;0.95;0.95;;;;;;;17.19;100.00;98904.28;4433393;32;20058;-69
2022/07/13 00:17:40;;;;;;;1.10;0.90;;;;;;;16.86;100.00;98855.25;4431490;32;20085;-70
2022/07/13 00:20:07;;;;;;;5.20;1.00;;;;;;;16.83;100.00;98851.22;4418285;32;20060;-69
2022/07/13 00:22:33;;;;;;;1.12;1.12;;;;;;;17.17;100.00;98877.34;4420975;32;20099;-70
2022/07/13 00:25:00;;;;;;;1.35;0.98;;;;;;;16.86;100.00;98845.22;4428679;32;20039;-70
2022/07/13 00:27:26;;;;;;;2.15;0.85;;;;;;;16.85;100.00;98881.66;4433334;32;20355;-70
2022/07/13 00:29:52;;;;;;;3.58;1.80;;;;;;;16.91;100.00;98868.78;4433282;32;20068;-70
2022/07/13 00:32:19;;;;;;;1.12;1.12;;;;;;;16.74;100.00;98874.72;4432555;32;20439;-70
2022/07/13 00:34:46;;;;;;;1.42;1.02;;;;;;;16.87;100.00;98873.22;4430438;32;20349;-71
2022/07/13 00:37:12;;;;;;;1.95;1.20;;;;;;;16.55;100.00;98839.38;4425062;32;20075;-70
2022/07/13 00:39:38;;;;;;;1.15;1.00;;;;;;;16.47;100.00;98837.34;4448273;32;20190;-70
2022/07/13 00:42:05;;;;;;;1.90;1.20;;;;;;;16.71;100.00;98848.13;4448540;32;20161;-70
2022/07/13 00:44:32;;;;;;;2.10;1.15;;;;;;;16.70;100.00;98874.50;4448418;32;20125;-69
2022/07/13 00:46:58;;;;;;;3.78;1.33;;;;;;;16.62;100.00;98867.00;4440404;32;20187;-70
2022/07/13 00:49:25;;;;;;;9.75;1.08;;;;;;;16.59;100.00;98866.78;4427555;32;20046;-71
2022/07/13 00:51:52;;;;;;;1.30;1.20;;;;;;;16.70;100.00;98877.22;4418022;32;20033;-70
2022/07/13 00:54:28;;;;;;;1.87;1.20;;;;;;;16.50;100.00;98839.47;4415936;32;20046;-70
2022/07/13 00:56:56;;;;;;;2.37;1.00;;;;;;;16.46;100.00;98831.06;4420639;32;20081;-69
2022/07/13 00:59:23;;;;;;;5.62;1.02;;;;;;;16.64;100.00;98867.53;4432265;32;20030;-69
2022/07/13 01:01:49;;;;;;;3.75;1.08;;;;;;;16.53;100.00;98868.78;4432020;32;20041;-69
2022/07/13 01:04:16;;;;;;;2.92;1.35;;;;;;;16.42;100.00;98840.09;4432870;32;20158;-69
2022/07/13 01:06:42;;;;;;;1.17;1.15;;;;;;;16.53;100.00;98868.78;4432048;32;20042;-69
2022/07/13 01:09:15;;;;;;;2.33;1.00;;;;;;;16.46;100.00;98862.88;4432409;32;20072;-69
2022/07/13 01:11:42;;;;;;;2.80;1.02;;;;;;;16.25;100.00;98835.19;4417737;32;20055;-70
2022/07/13 01:14:09;;;;;;;3.50;1.45;;;;;;;16.19;100.00;98826.28;4420154;32;20337;-69
2022/07/13 01:16:36;;;;;;;4.25;1.40;;;;;;;16.37;100.00;98883.66;4432692;32;20070;-70
2022/07/13 01:19:05;;;;;;;2.15;1.52;;;;;;;16.19;100.00;98820.84;4432572;32;20072;-69
2022/07/13 01:21:36;;;;;;;5.35;1.20;;;;;;;16.12;100.00;98834.78;4432151;32;20045;-69
2022/07/13 01:24:03;;;;;;;2.62;1.25;;;;;;;16.10;100.00;98817.97;4425867;32;20060;-69
2022/07/13 01:26:30;;;;;;;3.33;1.75;;;;;;;16.40;100.00;98820.56;4403131;32;20084;-70
2022/07/13 01:28:56;;;;;;;4.00;1.15;;;;;;;16.48;100.00;98811.75;4417257;32;20489;-69
2022/07/13 01:31:32;;;;;;;1.67;1.40;;;;;;;16.53;100.00;98857.91;4416043;32;20476;-69
2022/07/13 01:33:59;;;;;;;1.70;1.42;;;;;;;16.46;100.00;98863.69;4417188;32;20065;-69
2022/07/13 01:36:25;;;;;;;3.45;1.87;;;;;;;16.68;100.00;98841.34;4416055;32;20072;-69
2022/07/13 01:38:52;;;;;;;3.08;1.37;;;;;;;16.64;100.00;98856.66;4420553;32;20035;-68
2022/07/13 01:41:19;;;;;;;1.40;1.30;;;;;;;16.70;100.00;98858.22;4431907;32;20082;-68
2022/07/13 01:43:48;;;;;;;6.87;1.05;;;;;;;16.54;100.00;98837.75;4431389;32;20050;-69
2022/07/13 01:46:15;;;;;;;5.57;1.62;;;;;;;16.45;100.00;98840.34;4432137;32;20038;-69
2022/07/13 01:48:41;;;;;;;2.28;1.37;;;;;;;16.01;100.00;98802.63;4428873;32;20038;-69
2022/07/13 01:51:08;;;;;;;2.17;1.40;;;;;;;16.29;100.00;98845.19;4429307;32;20073;-70
2022/07/13 01:53:34;;;;;;;2.00;1.90;;;;;;;16.37;100.00;98853.75;4430115;32;20367;-69
2022/07/13 01:56:00;;;;;;;2.80;1.20;;;;;;;16.34;100.00;98845.09;4431948;32;20038;-69
2022/07/13 01:58:27;;;;;;;1.65;1.55;;;;;;;16.12;100.00;98842.13;4432106;32;20066;-69
2022/07/13 02:00:53;;;;;;;1.67;1.42;;;;;;;16.38;100.00;98849.94;4432347;32;20056;-69
2022/07/13 02:03:21;;;;;;;2.08;1.30;;;;;;;16.45;100.00;98850.37;4424477;32;20046;-69
2022/07/13 02:05:48;;;;;;;2.65;1.67;;;;;;;16.31;100.00;98842.97;4431912;32;20079;-69
2022/07/13 02:08:14;;;;;;;1.25;1.12;;;;;;;16.42;100.00;98859.94;4431665;32;20072;-69
2022/07/13 02:10:42;;;;;;;2.47;1.17;;;;;;;16.07;100.00;98804.97;4428047;32;20345;-70
2022/07/13 02:13:13;;;;;;;3.10;1.55;;;;;;;16.15;100.00;98806.25;4425837;32;20089;-69
2022/07/13 02:15:41;;;;;;;5.28;1.40;;;;;;;15.98;100.00;98831.97;4418556;32;20076;-70
2022/07/13 02:18:09;;;;;;;3.10;1.37;;;;;;;16.16;100.00;98837.72;4416794;32;20074;-68
2022/07/13 02:20:35;;;;;;;2.53;1.48;;;;;;;16.16;100.00;98821.44;4416294;32;20064;-68
2022/07/13 02:23:02;;;;;;;2.97;1.25;;;;;;;16.19;100.00;98826.28;4415865;32;20060;-69
2022/07/13 02:25:29;;;;;;;1.40;1.30;;;;;;;16.28;100.00;98832.69;4414359;32;20081;-68
2022/07/13 02:27:56;;;;;;;1.95;1.15;;;;;;;16.15;100.00;98825.25;4420795;32;20056;-70
2022/07/13 02:30:30;;;;;;;4.60;1.60;;;;;;;16.12;100.00;98837.50;4423308;32;20063;-69
2022/07/13 02:32:57;;;;;;;2.92;1.23;;;;;;;15.91;100.00;98815.22;4430854;32;20046;-69
2022/07/13 02:35:23;;;;;;;1.50;1.40;;;;;;;16.21;100.00;98834.13;4429876;32;20054;-69
2022/07/13 02:37:50;;;;;;;2.60;1.50;;;;;;;16.06;100.00;98835.94;4430623;32;20046;-69
2022/07/13 02:40:16;;;;;;;3.92;1.55;;;;;;;16.06;100.00;98838.66;4429123;32;20042;-69
2022/07/13 02:42:43;;;;;;;4.03;1.48;;;;;;;16.02;100.00;98828.66;4428259;32;20411;-69
2022/07/13 02:45:09;;;;;;;3.58;1.50;;;;;;;15.75;100.00;98794.78;4415601;32;20035;-71
2022/07/13 02:47:36;;;;;;;3.33;1.52;;;;;;;16.05;100.00;98825.38;4414866;32;20174;-70
2022/07/13 02:50:03;;;;;;;1.55;1.20;;;;;;;16.10;100.00;98817.19;4415074;32;20358;-69
2022/07/13 02:52:29;;;;;;;3.33;1.50;;;;;;;15.81;100.00;98793.62;4422258;32;20159;-68
2022/07/13 02:54:55;;;;;;;2.00;1.75;;;;;;;15.88;100.00;98777.81;4414696;32;20710;-69
2022/07/13 02:57:22;;;;;;;8.25;2.03;;;;;;;15.96;100.00;98812.44;4427536;32;20046;-68
2022/07/13 02:59:50;;;;;;;3.85;1.58;;;;;;;16.12;100.00;98821.22;4430614;32;20042;-68
2022/07/13 03:02:18;;;;;;;2.05;1.40;;;;;;;16.20;100.00;98827.91;4431143;32;20056;-69
2022/07/13 03:04:46;;;;;;;1.65;1.45;;;;;;;15.81;100.00;98771.91;4431688;32;20369;-69
2022/07/13 03:07:12;;;;;;;3.37;1.52;;;;;;;16.28;100.00;98826.44;4430153;32;20034;-70
2022/07/13 03:09:39;;;;;;;1.95;1.40;;;;;;;16.21;100.00;98824.09;4413712;32;20043;-69
2022/07/13 03:12:05;;;;;;;1.90;1.27;;;;;;;16.01;100.00;98813.50;4401779;32;20018;-69
2022/07/13 03:14:32;;;;;;;1.70;1.60;;;;;;;15.98;100.00;98818.38;4415381;32;20873;-69
2022/07/13 03:17:06;;;;;;;1.85;1.65;;;;;;;16.11;100.00;98829.66;4407077;32;20072;-69
2022/07/13 03:19:33;;;;;;;5.22;1.83;;;;;;;16.17;100.00;98820.34;4415053;32;20068;-69
2022/07/13 03:22:02;;;;;;;3.10;1.48;;;;;;;16.04;100.00;98770.25;4424415;32;20079;-68
2022/07/13 03:24:29;;;;;;;3.22;1.42;;;;;;;16.47;100.00;98831.91;4428023;32;20216;-70
2022/07/13 03:26:55;;;;;;;5.80;1.67;;;;;;;16.30;100.00;98819.59;4429728;32;20047;-70
2022/07/13 03:29:23;;;;;;;3.58;1.70;;;;;;;16.21;100.00;98791.50;4429531;32;20038;-69
2022/07/13 03:31:49;;;;;;;3.97;1.58;;;;;;;16.44;100.00;98810.75;4416727;32;20052;-69
2022/07/13 03:34:16;;;;;;;13.85;2.12;;;;;;;16.42;100.00;98807.50;4430707;32;20263;-69
2022/07/13 03:36:43;;;;;;;3.97;1.87;;;;;;;16.10;100.00;98784.59;4419172;32;20043;-69
2022/07/13 03:39:09;;;;;;;3.55;2.08;;;;;;;16.50;100.00;98831.31;4401502;32;20084;-68
2022/07/13 03:41:36;;;;;;;3.22;1.60;;;;;;;16.55;100.00;98825.81;4416934;32;20061;-69
2022/07/13 03:44:03;;;;;;;2.12;1.30;;;;;;;16.49;100.00;98789.72;4427150;32;20366;-69
2022/07/13 03:46:30;;;;;;;2.28;1.80;;;;;;;16.46;100.00;98784.06;4428683;32;20102;-69
2022/07/13 03:48:56;;;;;;;1.45;1.45;;;;;;;16.59;100.00;98824.09;4429361;32;20038;-69
2022/07/13 03:51:23;;;;;;;1.52;1.50;;;;;;;16.66;100.00;98821.03;4428770;32;20148;-69
2022/07/13 03:53:50;;;;;;;2.22;1.50;;;;;;;16.73;100.00;98817.94;4429215;32;20423;-69
2022/07/13 03:56:16;;;;;;;7.53;1.62;;;;;;;16.76;100.00;98822.78;4427027;32;20112;-68
2022/07/13 03:58:43;;;;;;;1.60;1.50;;;;;;;16.74;100.00;98825.78;4430076;32;20038;-69
2022/07/13 04:01:09;;;;;;;2.22;1.55;;;;;;;16.54;100.00;98777.97;4430356;32;20379;-69
2022/07/13 04:03:36;;;;;;;1.98;1.87;;;;;;;16.71;100.00;98832.63;4426042;32;20039;-70
2022/07/13 04:06:02;;;;;;;2.20;1.40;;;;;;;16.85;100.00;98837.31;4414883;32;20429;-71
2022/07/13 04:08:29;;;;;;;5.50;1.42;;;;;;;17.03;100.00;98833.78;4421864;32;20076;-70
2022/07/13 04:10:56;;;;;;;1.98;1.50;;;;;;;16.81;100.00;98820.78;4414836;32;20338;-70
2022/07/13 04:13:24;;;;;;;3.85;1.73;;;;;;;16.80;100.00;98796.59;4414693;32;20064;-68
2022/07/13 04:15:50;;;;;;;2.72;1.50;;;;;;;16.61;100.00;98816.47;4415213;32;20373;-69
2022/07/13 04:18:17;;;;;;;1.83;1.65;;;;;;;16.80;100.00;98834.66;4414786;32;20054;-69
2022/07/13 04:20:43;;;;;;;2.30;1.58;;;;;;;16.63;100.00;98802.59;4415320;32;20467;-69
2022/07/13 04:23:09;;;;;;;1.80;1.70;;;;;;;16.85;100.00;98849.03;4414478;32;20474;-69
2022/07/13 04:25:37;;;;;;;4.05;1.70;;;;;;;16.82;100.00;98835.19;4414486;32;20064;-69
2022/07/13 04:28:03;;;;;;;6.97;1.80;;;;;;;16.62;100.00;98785.44;4413094;32;20034;-70
2022/07/13 04:30:29;;;;;;;5.72;2.40;;;;;;;16.99;100.00;98853.72;4414714;32;20046;-69
2022/07/13 04:32:57;;;;;;;2.17;1.98;;;;;;;16.74;100.00;98808.66;4415173;32;20074;-69
2022/07/13 04:35:23;;;;;;;6.57;2.33;;;;;;;17.05;100.00;98847.88;4430007;32;20070;-73
2022/07/13 04:37:49;;;;;;;2.45;1.80;;;;;;;17.23;100.00;98842.69;4432569;32;20481;-72
2022/07/13 04:40:16;;;;;;;3.00;1.42;;;;;;;16.98;100.00;98803.97;4432791;32;20475;-73
2022/07/13 04:42:42;;;;;;;5.07;1.75;;;;;;;17.11;100.00;98807.03;4404821;32;20030;-72
2022/07/13 04:45:10;;;;;;;3.45;1.40;;;;;;;17.25;100.00;98808.66;4417363;32;20080;-72
2022/07/13 04:47:37;;;;;;;4.97;1.52;;;;;;;17.46;100.00;98824.63;4416528;32;20058;-73
2022/07/13 04:50:04;;;;;;;3.72;1.65;;;;;;;17.49;100.00;98828.66;4417482;32;20035;-73
2022/07/13 04:52:31;;;;;;;2.65;1.35;;;;;;;17.49;100.00;98796.00;4415127;32;20057;-75
2022/07/13 04:54:59;;;;;;;3.70;1.33;;;;;;;17.77;100.00;98833.03;4416495;32;20074;-74
2022/07/13 04:57:26;;;;;;;2.45;1.45;;;;;;;17.86;100.00;98835.84;4425637;32;20078;-72
2022/07/13 04:59:52;;;;;;;2.83;1.30;;;;;;;17.60;100.00;98791.97;4431334;32;20072;-73
2022/07/13 05:02:19;;;;;;;2.87;2.00;;;;;;;17.43;100.00;98793.38;4425377;32;20064;-73
2022/07/13 05:04:45;;;;;;;4.87;1.85;;;;;;;17.88;100.00;98805.63;4417083;32;20403;-73
2022/07/13 05:07:11;;;;;;;1.30;1.25;;;;;;;17.61;100.00;98766.34;4416807;32;20144;-73
2022/07/13 05:09:38;;;;;;;5.10;1.37;;;;;;;17.97;100.00;98803.81;4403508;32;20091;-72
2022/07/13 05:12:04;;;;;;;2.67;2.42;;;;;;;17.89;100.00;98771.84;4402571;32;20023;-73
2022/07/13 05:14:31;;;;;;;1.55;1.37;;;;;;;18.13;100.00;98826.87;4429957;32;20051;-73
2022/07/13 05:16:58;;;;;;;2.17;1.37;;;;;;;18.15;100.00;98830.09;4432214;32;20069;-72
2022/07/13 05:19:24;;;;;;;2.55;1.62;;;;;;;18.03;100.00;98788.13;4439570;32;20053;-72
2022/07/13 05:21:51;;;;;;;5.15;2.92;;;;;;;18.00;100.00;98784.13;4416082;32;20141;-72
2022/07/13 05:24:18;;;;;;;2.83;1.50;;;;;;;18.17;100.00;98835.25;4429134;32;20339;-73
2022/07/13 05:26:44;;;;;;;6.18;1.35;;;;;;;18.14;100.00;98806.72;4433248;32;20157;-72
2022/07/13 05:29:16;;;;;;;15.40;1.75;;;;;;;18.28;100.00;98808.59;4434943;32;20050;-73
2022/07/13 05:31:43;;;;;;;4.12;1.52;;;;;;;18.39;100.00;98831.78;4446781;32;20064;-74
2022/07/13 05:34:10;;;;;;;1.70;1.23;;;;;;;18.46;100.00;98824.00;4435719;32;20373;-73
2022/07/13 05:36:37;;;;;;;6.18;1.40;;;;;;;18.55;100.00;98826.00;4423680;32;20068;-73
2022/07/13 05:39:04;;;;;;;2.00;1.48;;;;;;;18.36;100.00;98780.59;4423233;32;20047;-73
2022/07/13 05:41:30;;;;;;;1.48;1.37;;;;;;;18.81;100.00;98829.75;4426339;32;20103;-73
2022/07/13 05:43:57;;;;;;;3.00;1.45;;;;;;;18.83;100.00;98811.16;4447490;32;20424;-73
2022/07/13 05:46:24;;;;;;;6.93;1.70;;;;;;;18.70;100.00;98779.28;4417844;32;20035;-72
2022/07/13 05:48:51;;;;;;;3.65;1.30;;;;;;;18.67;100.00;98779.91;4419680;32;20126;-73
2022/07/13 05:51:17;;;;;;;6.47;1.30;;;;;;;18.82;100.00;98825.88;4416720;32;20050;-74
2022/07/13 05:53:46;;;;;;;1.83;1.00;;;;;;;18.64;100.00;98808.59;4409328;32;20031;-73
2022/07/13 05:56:14;;;;;;;3.40;1.30;;;;;;;18.78;100.00;98841.28;4431125;32;20041;-72
2022/07/13 05:58:40;;;;;;;6.18;4.25;;;;;;;18.64;100.00;98807.78;4431739;32;20058;-74
2022/07/13 06:01:13;;;;;;;5.00;1.40;;;;;;;19.13;100.00;98827.91;4430929;32;20198;-76
2022/07/13 06:03:40;;;;;;;1.37;1.30;;;;;;;19.12;100.00;98801.75;4431196;32;20030;-73
2022/07/13 06:06:06;;;;;;;3.62;1.50;;;;;;;19.16;100.00;98808.19;4417653;32;20068;-73
2022/07/13 06:08:32;;;;;;;6.40;1.40;;;;;;;19.29;100.00;98843.88;4428250;32;20068;-74
2022/07/13 06:10:59;;;;;;;1.85;1.70;;;;;;;19.08;100.00;98817.09;4413937;32;20205;-75
2022/07/13 06:13:25;;;;;;;2.20;1.52;;;;;;;18.83;100.00;98805.69;4422648;32;20080;-74
2022/07/13 06:15:51;;;;;;;1.23;1.20;;;;;;;18.97;100.00;98799.38;4423373;32;20117;-74
2022/07/13 06:18:18;;;;;;;8.77;1.20;;;;;;;19.09;100.00;98807.03;4419819;32;20068;-74
2022/07/13 06:20:44;;;;;;;5.35;1.42;;;;;;;19.45;100.00;98864.25;4415770;32;20054;-73
2022/07/13 06:23:10;;;;;;;2.97;1.73;;;;;;;19.22;100.00;98834.22;4415853;32;20068;-74
2022/07/13 06:25:43;;;;;;;1.58;1.50;;;;;;;19.33;100.00;98850.34;4415698;32;20042;-73
2022/07/13 06:28:09;;;;;;;11.23;1.87;;;;;;;19.54;100.00;98859.59;4418690;32;20184;-74
2022/07/13 06:30:35;;;;;;;5.12;1.75;;;;;;;19.53;100.00;98860.75;4423383;32;20033;-73
2022/07/13 06:33:02;;;;;;;6.05;1.40;;;;;;;19.38;100.00;98814.72;4415937;32;20793;-73
2022/07/13 06:35:31;;;;;;;4.28;1.65;;;;;;;19.65;100.00;98810.19;4415770;32;20181;-73
2022/07/13 06:37:58;;;;;;;3.30;1.83;;;;;;;20.03;100.00;98861.62;4423287;32;20068;-73
2022/07/13 06:40:24;;;;;;;2.65;1.80;;;;;;;19.66;100.00;98836.41;4416866;32;20071;-73
2022/07/13 06:42:51;;;;;;;5.05;1.35;;;;;;;19.86;100.00;98852.22;4430375;32;20072;-74
2022/07/13 06:45:17;;;;;;;1.60;1.48;;;;;;;19.90;100.00;98825.91;4423942;32;20046;-73
2022/07/13 06:47:44;;;;;;;1.67;1.30;;;;;;;20.12;100.00;98862.47;4401451;32;20056;-73
2022/07/13 06:50:10;;;;;;;2.20;1.42;;;;;;;20.21;100.00;98852.34;4414010;32;20076;-73
2022/07/13 06:52:46;;;;;;;5.43;2.17;;;;;;;20.41;100.00;98863.81;4414879;32;20177;-73
2022/07/13 06:55:12;;;;;;;3.25;1.60;;;;;;;20.10;100.00;98837.38;4415299;32;20052;-73
2022/07/13 06:57:39;;;;;;;3.85;1.45;;;;;;;20.43;100.00;98867.03;4414930;32;20419;-73
2022/07/13 07:00:07;;;;;;;1.20;1.00;;;;;;;20.60;100.00;98858.84;4428361;32;20045;-73
2022/07/13 07:02:36;;;;;;;7.40;3.58;;;;;;;20.43;100.00;98848.69;4408819;32;20053;-72
2022/07/13 07:05:05;;;;;;;1.75;1.37;;;;;;;20.41;100.00;98880.22;4414320;32;20051;-74
2022/07/13 07:07:31;;;;;;;1.83;1.27;;;;;;;20.31;100.00;98852.06;4414605;32;20038;-72
2022/07/13 07:09:57;;;;;;;2.85;1.70;;;;;;;20.60;100.00;98893.59;4414723;32;20043;-68
2022/07/13 07:12:24;;;;;;;1.65;1.33;;;;;;;20.62;100.00;98867.53;4415056;32;20318;-69
2022/07/13 07:14:50;;;;;;;2.10;1.27;;;;;;;20.40;100.00;98843.06;4415476;32;20039;-69
2022/07/13 07:17:17;;;;;;;2.08;1.37;;;;;;;20.11;100.00;98789.78;4413786;32;20065;-69
2022/07/13 07:19:44;;;;;;;2.45;1.20;;;;;;;20.59;100.00;98846.28;4414264;32;20034;-71
2022/07/13 07:22:11;;;;;;;2.40;1.50;;;;;;;20.72;100.00;98865.66;4414274;32;20057;-70
2022/07/13 07:24:41;;;;;;;1.75;1.42;;;;;;;20.68;100.00;98833.47;4415080;32;20078;-69
2022/07/13 07:27:10;;;;;;;1.23;1.20;;;;;;;20.76;100.00;98844.72;4422127;32;20337;-69
2022/07/13 07:29:37;;;;;;;2.62;1.58;;;;;;;20.95;100.00;98845.22;4417221;32;20059;-70
2022/07/13 07:32:05;;;;;;;4.82;1.30;;;;;;;21.04;100.00;98818.66;4422225;32;20399;-69
2022/07/13 07:34:32;;;;;;;3.87;1.67;;;;;;;21.13;100.00;98826.03;4409041;32;20034;-69
2022/07/13 07:36:59;;;;;;;3.35;1.00;;;;;;;21.45;100.00;98848.50;4424240;32;20067;-70
2022/07/13 07:39:26;;;;;;;6.55;1.45;;;;;;;21.24;100.00;98816.34;4420081;32;20348;-69
2022/07/13 07:41:53;;;;;;;5.62;1.48;;;;;;;21.48;100.00;98847.84;4421739;32;20094;-69
2022/07/13 07:44:19;;;;;;;2.65;1.33;;;;;;;21.62;100.00;98843.00;4419717;32;20050;-68
2022/07/13 07:46:47;;;;;;;5.53;1.83;;;;;;;21.60;100.00;98817.84;4417983;32;20069;-69
2022/07/13 07:49:13;;;;;;;2.30;1.08;;;;;;;22.05;100.00;98855.72;4416151;32;20046;-70
2022/07/13 07:51:39;;;;;;;1.75;1.40;;;;;;;21.74;100.00;98829.41;4420899;32;20094;-69
2022/07/13 07:54:06;;;;;;;2.97;1.27;;;;;;;22.03;100.00;98855.22;4412381;32;20050;-69
2022/07/13 07:56:32;;;;;;;1.23;1.12;;;;;;;22.06;100.00;98851.81;4400929;32;20027;-69
2022/07/13 07:58:58;;;;;;;1.20;1.20;;;;;;;21.96;100.00;98841.25;4411622;32;20031;-70
2022/07/13 08:01:27;;;;;;;1.17;1.17;;;;;;;22.01;100.00;98829.28;4401542;32;20046;-69
2022/07/13 08:03:54;;;;;;;3.40;1.05;;;;;;;22.22;100.00;98864.97;4413710;32;20072;-69
2022/07/13 08:06:20;;;;;;;7.15;1.23;;;;;;;22.37;100.00;98867.19;4413773;32;20090;-72
2022/07/13 08:08:47;;;;;;;1.40;1.30;;;;;;;22.45;100.00;98858.09;4413406;32;20387;-68
2022/07/13 08:11:17;;;;;;;5.37;2.10;;;;;;;22.34;100.00;98839.59;4415268;32;20031;-69
2022/07/13 08:13:46;;;;;;;1.85;1.12;;;;;;;22.54;100.00;98884.66;4403164;32;20018;-70
2022/07/13 08:16:14;;;;;;;2.78;1.00;;;;;;;22.24;100.00;98836.09;4424745;32;20042;-69
2022/07/13 08:18:40;;;;;;;1.98;1.00;;;;;;;22.68;100.00;98860.50;4421028;32;20111;-70
2022/07/13 08:21:07;;;;;;;3.22;1.35;;;;;;;22.69;100.00;98845.66;4418098;32;20062;-70
2022/07/13 08:23:51;;;;;;;3.55;1.20;;;;;;;22.74;100.00;98820.75;4416914;32;20108;-69
2022/07/13 08:26:29;;;;;;;2.67;1.27;;;;;;;22.97;100.00;98828.63;4416887;32;20060;-69
2022/07/13 08:28:59;;;;;;;1.40;1.05;;;;;;;22.99;100.00;98848.31;4418367;32;20033;-71
2022/07/13 08:40:38;;;;;;;2.28;1.37;;;;;;;23.26;100.00;98868.13;4420861;32;20066;-71
2022/07/13 08:43:05;;;;;;;2.33;1.17;;;;;;;23.24;100.00;98870.41;4423258;32;20375;-70
2022/07/13 08:45:33;;;;;;;3.08;1.00;;;;;;;23.32;100.00;98836.56;4423608;32;20227;-72
2022/07/13 08:48:00;;;;;;;1.48;1.30;;;;;;;23.29;100.00;98881.97;4421498;32;20042;-68
2022/07/13 08:50:31;;;;;;;3.80;1.20;;;;;;;23.26;100.00;98868.13;4422061;32;20076;-70
2022/07/13 08:52:59;;;;;;;1.00;1.00;;;;;;;23.38;100.00;98901.94;4415833;32;20458;-69
2022/07/13 08:55:25;;;;;;;1.87;1.17;;;;;;;23.49;100.00;98879.53;4417045;32;20353;-69
2022/07/13 08:57:52;;;;;;;3.70;1.37;;;;;;;23.32;100.00;98839.31;4423420;32;20071;-70
2022/07/13 09:00:21;;;;;;;1.85;1.30;;;;;;;23.54;100.00;98863.63;4431828;32;20137;-71
2022/07/13 09:02:48;;;;;;;1.20;1.05;;;;;;;23.58;100.00;98892.03;4415155;32;20349;-71
2022/07/13 09:05:19;;;;;;;3.85;1.12;;;;;;;23.81;100.00;98894.38;4427885;32;20409;-70
2022/07/13 09:08:02;;;;;;;2.47;1.17;;;;;;;23.48;100.00;98869.69;4423818;32;20064;-70
2022/07/13 09:10:28;;;;;;;0.75;0.75;;;;;;;23.69;100.00;98878.66;4422971;32;20352;-70
2022/07/13 09:12:55;;;;;;;2.03;1.12;;;;;;;23.82;100.00;98898.72;4421944;32;20042;-69
2022/07/13 09:15:21;;;;;;;2.33;1.08;;;;;;;23.78;100.00;98889.53;4416396;32;20056;-71
2022/07/13 09:17:47;;;;;;;1.00;1.00;;;;;;;23.71;100.00;98839.81;4415593;32;20047;-71
2022/07/13 09:20:14;;;;;;;1.12;0.90;;;;;;;23.73;100.00;98893.31;4416059;32;20107;-69
2022/07/13 09:22:46;;;;;;;0.98;0.80;;;;;;;24.02;100.00;98915.50;4415997;32;20067;-69
2022/07/13 09:25:33;;;;;;;4.75;1.10;;;;;;;23.87;100.00;98859.22;4416347;32;20064;-70
2022/07/13 09:28:03;;;;;;;1.83;1.10;;;;;;;24.01;100.00;98864.38;4416885;32;20042;-69
2022/07/13 09:30:31;;;;;;;4.80;1.45;;;;;;;24.19;100.00;98892.47;4414730;32;20043;-71
2022/07/13 09:32:59;;;;;;;0.90;0.90;;;;;;;24.06;100.00;98888.91;4422758;32;20077;-69
2022/07/13 09:35:48;;;;;;;0.93;0.93;;;;;;;24.23;100.00;98899.69;4429190;32;20168;-69
2022/07/13 09:38:32;;;;;;;1.40;1.00;;;;;;;24.12;100.00;98920.53;4431719;32;20053;-70
2022/07/13 09:41:24;;;;;;;1.10;1.00;;;;;;;24.15;100.00;98933.59;4431155;32;20033;-68
2022/07/13 09:46:52;;;;;;;2.17;0.82;;;;;;;24.36;100.00;98916.19;4430794;32;20292;-70
2022/07/13 09:49:30;;;;;;;1.48;0.95;;;;;;;24.52;100.00;98954.81;4431431;32;20077;-68
2022/07/13 09:51:58;;;;;;;2.20;0.70;;;;;;;24.47;92.88;98931.09;4431398;32;20042;-70
2022/07/13 09:54:29;;;;;;;0.88;0.88;;;;;;;24.53;91.86;98918.69;4422163;32;20101;-70
2022/07/13 09:57:03;;;;;;;0.80;0.80;;;;;;;24.60;89.58;98918.16;4421323;32;20069;-71
2022/07/13 09:59:30;;;;;;;1.30;0.93;;;;;;;24.57;85.16;98880.31;4415356;32;20104;-71
2022/07/13 10:01:57;;;;;;;2.95;0.80;;;;;;;24.75;85.21;98927.66;4402577;32;20026;-70
2022/07/13 10:04:23;;;;;;;1.80;0.98;;;;;;;24.78;85.67;98907.66;4415097;32;20508;-70
2022/07/13 10:06:50;;;;;;;1.20;1.08;;;;;;;24.82;88.77;98909.38;4415841;32;20068;-70
2022/07/13 10:09:25;;;;;;;0.88;0.85;;;;;;;24.62;89.41;98880.09;4417800;32;20072;-70
2022/07/13 10:11:52;;;;;;;1.10;1.10;;;;;;;24.89;91.44;98914.31;4415899;32;20050;-68
2022/07/13 10:14:19;;;;;;;1.75;0.90;;;;;;;25.05;92.38;98916.31;4415122;32;20103;-69
2022/07/13 10:16:46;;;;;;;3.75;1.20;;;;;;;25.09;90.77;98917.25;4415341;32;20357;-70
2022/07/13 10:19:14;;;;;;;5.05;1.08;;;;;;;25.06;90.84;98907.72;4414462;32;20060;-71
2022/07/13 10:22:11;;;;;;;3.20;1.08;;;;;;;25.25;93.21;98904.31;4403635;32;20098;-70
2022/07/13 10:24:51;;;;;;;3.08;1.00;;;;;;;25.63;96.27;98897.50;4413060;32;20147;-70
2022/07/13 10:27:32;;;;;;;2.95;0.90;;;;;;;25.53;93.53;98881.50;4417562;32;20101;-72
2022/07/13 10:30:06;;;;;;;2.20;1.50;;;;;;;25.57;94.65;98926.47;4415489;32;20072;-70
2022/07/13 10:32:36;;;;;;;1.35;1.25;;;;;;;25.46;94.95;98909.63;4415619;32;20199;-69
2022/07/13 10:35:09;;;;;;;8.07;0.95;;;;;;;25.55;93.77;98912.25;4413896;32;20072;-69
2022/07/13 10:37:57;;;;;;;6.60;0.85;;;;;;;25.54;96.55;98910.63;4402771;32;20421;-71
2022/07/13 10:40:24;;;;;;;1.10;1.00;;;;;;;25.76;94.67;98900.97;4417068;32;20056;-70
2022/07/13 10:42:53;;;;;;;1.10;1.00;;;;;;;25.68;99.29;98918.50;4415572;32;20376;-70
2022/07/13 10:45:31;;;;;;;1.30;1.23;;;;;;;25.40;100.00;98918.50;4415772;32;20074;-69
2022/07/13 10:48:04;;;;;;;1.15;1.12;;;;;;;25.35;100.00;98917.63;4420819;32;20046;-71
2022/07/13 10:50:38;;;;;;;1.40;1.30;;;;;;;25.28;100.00;98875.31;4421279;32;20076;-70
2022/07/13 10:56:33;;;;;;;3.70;1.42;;;;;;;25.62;100.00;98917.94;4421010;32;20045;-69
2022/07/13 10:59:02;;;;;;;5.05;1.30;;;;;;;25.79;98.55;98905.00;4421244;32;20196;-69
2022/07/13 11:01:36;;;;;;;2.75;1.30;;;;;;;25.92;96.10;98906.50;4421242;32;20068;-70
2022/07/13 11:04:05;;;;;;;5.10;1.30;;;;;;;26.08;97.45;98901.81;4421061;32;20299;-70
2022/07/13 11:06:32;;;;;;;4.60;0.90;;;;;;;25.91;88.32;98891.91;4421072;32;20046;-71
2022/07/13 11:09:07;;;;;;;1.20;0.93;;;;;;;26.29;82.33;98928.31;4422068;32;20068;-71
2022/07/13 11:11:42;;;;;;;1.95;1.02;;;;;;;26.75;80.20;98920.34;4420968;32;20042;-69
2022/07/13 11:14:36;;;;;;;1.08;1.08;;;;;;;27.04;68.86;98898.06;4416533;32;20042;-69
2022/07/13 11:17:12;;;;;;;4.37;1.12;;;;;;;27.14;74.19;98891.94;4414611;32;20411;-70
2022/07/13 11:19:52;;;;;;;7.47;1.05;;;;;;;27.39;76.04;98895.22;4415200;32;20062;-69
2022/07/13 11:22:24;;;;;;;0.98;0.98;;;;;;;27.18;74.88;98857.69;4410677;32;20083;-69
2022/07/13 11:25:24;;;;;;;5.07;1.33;;;;;;;26.82;85.83;98906.69;4429854;32;20087;-70
2022/07/13 11:28:10;;;;;;;1.00;1.00;;;;;;;26.59;85.98;98903.00;4428650;32;20988;-70
2022/07/13 11:30:43;;;;;;;1.10;1.00;;;;;;;26.52;87.85;98881.56;4429223;32;20057;-69
2022/07/13 11:33:13;;;;;;;2.15;1.20;;;;;;;26.77;79.32;98897.88;4428337;32;20386;-70
2022/07/13 11:35:45;;;;;;;2.25;1.00;;;;;;;26.85;78.42;98899.62;4426233;32;20101;-71
2022/07/13 11:38:16;;;;;;;1.23;1.02;;;;;;;26.83;82.76;98861.31;4425488;32;20050;-70
2022/07/13 11:40:43;;;;;;;21.17;1.25;;;;;;;26.97;74.91;98852.53;4421316;32;20076;-70
2022/07/13 11:43:10;;;;;;;1.55;1.25;;;;;;;27.86;71.20;98880.25;4420560;32;20076;-69
2022/07/13 11:45:40;;;;;;;1.42;1.20;;;;;;;28.23;63.37;98878.91;4425596;32;20030;-70
2022/07/13 11:48:12;;;;;;;1.10;1.08;;;;;;;28.21;61.66;98879.28;4423077;32;20045;-69